createdAt,value
2019-03-28T00:00:25.981Z,102624.19
2019-03-28T00:05:30.568Z,102619.70
2019-03-28T00:10:35.323Z,102619.13
2019-03-28T00:15:40.027Z,102621.30
2019-03-28T00:20:44.627Z,102623.71
2019-03-28T00:25:49.189Z,102623.81
2019-03-28T00:30:53.853Z,102621.52
2019-03-28T00:35:58.564Z,102609.28
2019-03-28T00:41:03.480Z,102610.59
2019-03-28T00:46:08.171Z,102615.33
2019-03-28T00:51:12.827Z,102616.98
2019-03-28T00:56:18.348Z,102611.08
2019-03-28T01:01:23.316Z,102616.66
2019-03-28T01:06:27.932Z,102617.29
2019-03-28T01:11:32.514Z,102619.94
2019-03-28T01:16:37.143Z,102618.85
2019-03-28T01:21:41.894Z,102613.42
2019-03-28T01:26:56.678Z,102612.98
2019-03-28T01:31:52.834Z,102613.94
2019-03-28T01:36:57.501Z,102613.46
2019-03-28T01:42:02.236Z,102614.22
2019-03-28T01:47:06.839Z,102614.84
2019-03-28T01:52:11.433Z,102614.31
2019-03-28T01:57:16.048Z,102617.27
2019-03-28T02:02:21.005Z,102615.80
2019-03-28T02:07:25.632Z,102618.70
2019-03-28T02:12:31.130Z,102612.51
2019-03-28T02:17:35.757Z,102620.03
2019-03-28T02:22:40.417Z,102623.08
2019-03-28T02:27:45.008Z,102623.66
2019-03-28T02:32:49.617Z,102628.74
2019-03-28T02:37:54.285Z,102629.59
2019-03-28T02:42:58.980Z,102633.31
2019-03-28T02:48:03.590Z,102628.36
2019-03-28T02:53:08.549Z,102630.55
2019-03-28T02:58:13.128Z,102637.70
2019-03-28T03:03:17.741Z,102632.45
2019-03-28T03:08:22.306Z,102630.75
2019-03-28T03:13:26.892Z,102629.06
2019-03-28T03:18:31.511Z,102633.80
2019-03-28T03:23:36.099Z,102639.45
2019-03-28T03:28:40.696Z,102634.02
2019-03-28T03:33:45.715Z,102632.08
2019-03-28T03:38:50.321Z,102639.26
2019-03-28T03:43:54.956Z,102642.24
2019-03-28T03:48:59.583Z,102643.20
2019-03-28T03:54:04.189Z,102638.40
2019-03-28T03:59:08.861Z,102632.30
2019-03-28T04:04:13.457Z,102640.69
2019-03-28T04:09:18.285Z,102641.16
2019-03-28T04:14:23.099Z,102644.69
2019-03-28T04:19:27.693Z,102645.42
2019-03-28T04:24:32.674Z,102655.36
2019-03-28T04:29:37.316Z,102651.36
2019-03-28T04:34:42.006Z,102647.20
2019-03-28T04:39:46.633Z,102658.59
2019-03-28T04:44:51.301Z,102662.88
2019-03-28T04:49:55.928Z,102665.02
2019-03-28T04:55:00.916Z,102673.72
2019-03-28T05:00:07.422Z,102678.45
2019-03-28T05:05:12.214Z,102675.30
2019-03-28T05:10:16.801Z,102679.91
2019-03-28T05:15:22.080Z,102689.88
2019-03-28T05:20:26.719Z,102683.30
2019-03-28T05:25:31.326Z,102687.84
2019-03-28T05:30:36.219Z,102689.81
2019-03-28T05:35:40.885Z,102687.78
2019-03-28T05:40:45.535Z,102695.44
2019-03-28T05:45:50.189Z,102695.15
2019-03-28T05:50:54.793Z,102704.30
2019-03-28T05:55:59.448Z,102711.79
2019-03-28T06:01:06.752Z,102713.66
2019-03-28T06:06:11.629Z,102717.57
2019-03-28T06:11:16.342Z,102727.45
2019-03-28T06:16:20.983Z,102733.89
2019-03-28T06:21:25.916Z,102744.83
2019-03-28T06:26:30.532Z,102744.34
2019-03-28T06:31:35.169Z,102755.63
2019-03-28T06:36:40.379Z,102759.50
2019-03-28T06:41:45.520Z,102761.79
2019-03-28T06:46:50.224Z,102761.47
2019-03-28T06:51:56.553Z,102763.31
2019-03-28T06:57:06.095Z,102765.67
2019-03-28T07:02:10.784Z,102768.11
2019-03-28T07:07:18.312Z,102769.92
2019-03-28T07:12:22.167Z,102784.77
2019-03-28T07:17:26.745Z,102787.84
2019-03-28T07:22:31.436Z,102790.58
2019-03-28T07:27:36.106Z,102798.33
2019-03-28T07:32:43.378Z,102800.08
2019-03-28T07:37:47.003Z,102795.18
2019-03-28T07:42:51.626Z,102794.10
2019-03-28T07:47:56.460Z,102804.95
2019-03-28T07:53:05.220Z,102804.48
2019-03-28T07:58:09.836Z,102811.42
2019-03-28T08:03:14.556Z,102811.78
2019-03-28T08:08:19.182Z,102816.80
2019-03-28T08:13:24.178Z,102809.97
2019-03-28T08:18:29.033Z,102818.98
2019-03-28T08:23:35.337Z,102819.41
2019-03-28T08:28:40.126Z,102832.83
2019-03-28T08:33:45.859Z,102835.38
2019-03-28T08:38:52.333Z,102838.23
2019-03-28T08:43:57.079Z,102840.11
2019-03-28T08:49:01.972Z,102835.81
2019-03-28T08:54:06.959Z,102852.00
2019-03-28T08:59:11.669Z,102854.13
2019-03-28T09:04:16.344Z,102842.09
2019-03-28T09:09:21.447Z,102847.95
2019-03-28T09:14:26.468Z,102862.30
2019-03-28T09:19:31.194Z,102854.02
2019-03-28T09:24:35.833Z,102855.94
2019-03-28T09:29:40.449Z,102846.60
2019-03-28T09:34:45.454Z,102853.20
2019-03-28T09:39:50.096Z,102845.36
2019-03-28T09:44:54.986Z,102845.36
2019-03-28T09:49:59.670Z,102844.26
2019-03-28T09:55:04.318Z,102844.26
2019-03-28T10:00:10.082Z,102842.69
2019-03-28T10:05:15.055Z,102838.61
2019-03-28T10:10:19.748Z,102834.94
2019-03-28T10:15:24.378Z,102842.07
2019-03-28T10:20:29.029Z,102842.07
2019-03-28T10:25:33.931Z,102856.48
2019-03-28T10:30:40.556Z,102853.42
2019-03-28T10:35:45.189Z,102856.72
2019-03-28T10:40:49.806Z,102859.43
2019-03-28T10:45:54.483Z,102856.83
2019-03-28T10:50:59.121Z,102869.92
2019-03-28T10:56:03.780Z,102870.24
2019-03-28T11:01:08.359Z,102865.75
2019-03-28T11:06:13.053Z,102869.66
2019-03-28T11:11:17.674Z,102867.89
2019-03-28T11:16:22.282Z,102866.87
2019-03-28T11:21:26.887Z,102868.34
2019-03-28T11:26:31.731Z,102868.31
2019-03-28T11:31:46.132Z,102877.90
2019-03-28T11:36:42.579Z,102881.96
2019-03-28T11:41:47.270Z,102876.99
2019-03-28T11:46:51.953Z,102881.52
2019-03-28T11:51:56.580Z,102888.26
2019-03-28T11:57:01.246Z,102901.81
2019-03-28T12:02:19.114Z,102901.16
2019-03-28T12:07:12.240Z,102903.38
2019-03-28T12:12:16.854Z,102899.44
2019-03-28T12:17:21.860Z,102894.86
2019-03-28T12:22:26.538Z,102893.10
2019-03-28T12:27:31.122Z,102895.97
2019-03-28T12:32:35.759Z,102901.00
2019-03-28T12:37:40.339Z,102901.33
2019-03-28T12:42:44.928Z,102895.98
2019-03-28T12:47:49.599Z,102896.65
2019-03-28T12:52:54.171Z,102892.11
2019-03-28T12:57:58.874Z,102896.20
2019-03-28T13:03:03.596Z,102904.50
2019-03-28T13:08:08.838Z,102909.73
2019-03-28T13:13:13.484Z,102914.13
2019-03-28T13:18:18.109Z,102913.69
2019-03-28T13:23:22.980Z,102919.73
2019-03-28T13:28:28.561Z,102921.89
2019-03-28T13:33:33.297Z,102920.38
2019-03-28T13:38:38.224Z,102927.69
2019-03-28T13:43:42.961Z,102923.77
2019-03-28T13:48:47.570Z,102916.88
2019-03-28T13:53:53.827Z,102918.35
2019-03-28T13:58:58.590Z,102915.91
2019-03-28T14:04:03.533Z,102914.88
2019-03-28T14:09:08.117Z,102919.28
2019-03-28T14:14:12.724Z,102908.87
2019-03-28T14:19:17.335Z,102904.23
2019-03-28T14:24:22.029Z,102901.50
2019-03-28T14:29:29.742Z,102897.55
2019-03-28T14:34:32.907Z,102901.08
2019-03-28T14:39:37.513Z,102904.77
2019-03-28T14:44:42.139Z,102909.64
2019-03-28T14:49:46.761Z,102915.24
2019-03-28T14:54:51.350Z,102917.44
2019-03-28T14:59:56.825Z,102924.52
2019-03-28T15:05:01.402Z,102924.51
2019-03-28T15:10:06.178Z,102925.52
2019-03-28T15:15:10.786Z,102921.53
2019-03-28T15:20:15.462Z,102915.66
2019-03-28T15:25:22.068Z,102909.34
2019-03-28T15:30:26.916Z,102910.98
2019-03-28T15:35:31.517Z,102895.74
2019-03-28T15:40:36.376Z,102895.74
2019-03-28T15:45:41.169Z,102901.81
2019-03-28T15:50:45.861Z,102903.91
2019-03-28T15:55:50.440Z,102901.72
2019-03-28T16:00:55.107Z,102908.41
2019-03-28T16:05:59.763Z,102916.23
2019-03-28T16:11:04.335Z,102919.47
2019-03-28T16:16:08.930Z,102934.92
2019-03-28T16:21:13.551Z,102934.92
2019-03-28T16:26:18.378Z,102925.80
2019-03-28T16:31:22.964Z,102924.69
2019-03-28T16:36:27.937Z,102932.95
2019-03-28T16:41:33.040Z,102927.51
2019-03-28T16:46:37.709Z,102930.76
2019-03-28T16:51:43.649Z,102937.88
2019-03-28T16:56:48.270Z,102940.75
2019-03-28T17:01:52.869Z,102942.42
2019-03-28T17:06:57.600Z,102943.25
2019-03-28T17:12:02.263Z,102933.39
2019-03-28T17:17:06.926Z,102933.39
2019-03-28T17:22:11.555Z,102944.01
2019-03-28T17:27:24.727Z,102939.39
2019-03-28T17:32:29.528Z,102947.66
2019-03-28T17:37:34.124Z,102952.48
2019-03-28T17:42:38.737Z,102952.48
2019-03-28T17:47:43.312Z,102955.09
2019-03-28T17:52:47.995Z,102964.64
2019-03-28T17:57:52.565Z,102966.26
2019-03-28T18:03:08.373Z,102972.34
2019-03-28T18:08:06.137Z,102964.69
2019-03-28T18:13:10.715Z,102964.69
2019-03-28T18:18:44.392Z,102970.16
2019-03-28T18:23:51.490Z,102976.20
2019-03-28T18:28:57.458Z,102976.69
2019-03-28T18:34:03.036Z,102983.58
2019-03-28T18:39:08.230Z,102985.87
2019-03-28T18:44:12.906Z,102990.78
2019-03-28T18:49:17.552Z,102985.23
2019-03-28T18:54:22.258Z,102991.73
2019-03-28T18:59:27.006Z,102994.59
2019-03-28T19:04:31.708Z,102994.16
2019-03-28T19:09:36.605Z,103005.50
2019-03-28T19:14:41.406Z,103008.55
2019-03-28T19:19:46.208Z,103015.01
2019-03-28T19:24:51.089Z,103013.67
2019-03-28T19:29:56.000Z,103015.18
2019-03-28T19:35:03.014Z,103018.08
2019-03-28T19:40:09.340Z,103027.28
2019-03-28T19:45:17.202Z,103038.14
2019-03-28T19:50:29.377Z,103036.13
2019-03-28T19:55:34.709Z,103045.70
2019-03-28T20:00:39.982Z,103044.38
2019-03-28T20:05:54.048Z,103044.05
2019-03-28T20:10:59.862Z,103045.64
2019-03-28T20:16:04.757Z,103047.45
2019-03-28T20:21:09.774Z,103047.84
2019-03-28T20:26:15.048Z,103043.89
2019-03-28T20:31:21.508Z,103033.34
2019-03-28T20:36:37.480Z,103037.06
2019-03-28T20:41:34.831Z,103041.14
2019-03-28T20:46:40.909Z,103041.23
2019-03-28T20:51:46.744Z,103040.92
2019-03-28T20:56:52.663Z,103038.63
2019-03-28T21:01:58.003Z,103044.36
2019-03-28T21:07:02.992Z,103046.74
2019-03-28T21:12:08.261Z,103047.03
2019-03-28T21:17:13.237Z,103039.33
2019-03-28T21:22:18.728Z,103046.55
2019-03-28T21:27:23.798Z,103047.80
2019-03-28T21:32:28.496Z,103048.69
2019-03-28T21:37:33.395Z,103046.96
2019-03-28T21:42:38.817Z,103046.78
2019-03-28T21:47:44.157Z,103037.66
2019-03-28T21:52:48.840Z,103049.59
2019-03-28T21:57:53.698Z,103041.50
2019-03-28T22:02:58.564Z,103042.23
2019-03-28T22:08:03.731Z,103039.22
2019-03-28T22:13:11.989Z,103032.63
2019-03-28T22:18:15.969Z,103040.59
2019-03-28T22:23:21.168Z,103038.30
2019-03-28T22:28:26.651Z,103045.58
2019-03-28T22:33:32.293Z,103029.95
2019-03-28T22:38:37.492Z,103026.99
2019-03-28T22:43:42.268Z,103036.42
2019-03-28T22:48:47.282Z,103022.52
2019-03-28T22:53:51.972Z,103037.92
2019-03-28T22:58:56.583Z,103037.92
2019-03-28T23:04:01.192Z,103029.91
2019-03-28T23:09:06.489Z,103034.11
2019-03-28T23:14:11.061Z,103025.86
2019-03-28T23:19:15.633Z,103035.25
2019-03-28T23:24:20.282Z,103040.28
2019-03-28T23:29:24.959Z,103050.93
2019-03-28T23:34:29.605Z,103052.05
2019-03-28T23:39:34.465Z,103037.88
2019-03-28T23:44:39.085Z,103037.88
2019-03-28T23:49:43.735Z,103045.77
2019-03-28T23:54:48.327Z,103044.17
2019-03-28T23:59:52.967Z,103040.00
